Tramper — PHAA — position and weather

sailwx.info

Track history (hours):
 
Tides and Currents Weather Stations Pressure Air Temp Water Temp Dewpoint Dewpoint Depression Visibility Wind Speed Wind Dir Waves Ship Positions

Tramper

Last reported at 2016-May-06 18:34 UTC. Time now 2016-May-06 18:49 UTC.
Position N 40°04' E 002°29'.

Length 101 m; beam 20 m.

Type: Cargo ship. MMSI: 245867000.

Date/timePositionNaut miles runAvg speedWind from/ knotsBaromVisibWave heightAir tempDewpointWater temp
2016-May-06 18:34N 40°04' E 002°29'1514.0
2016-May-06 17:31N 40°13' E 002°44'1313.6
2016-May-06 16:33N 40°22' E 002°57'1413.9
2016-May-06 15:33N 40°31' E 003°11'4713.3
2016-May-06 12:00N 41°00' E 004°00'8714.5 120 / 51015.8 5.4 0.519.314.0
2016-May-06 06:00N 42°00' E 005°24'8213.7 090 / 91017.327.0 0.516.813.5
2016-May-06 00:00N 42°54' E 006°48'2617.3 100 / 151019.3 5.4 1.516.511.4
2016-May-05 22:31N 43°12' E 007°13'1514.5
2016-May-05 21:30N 43°22' E 007°28'1414.7
2016-May-05 20:33N 43°31' E 007°42'1715.3
2016-May-05 19:26N 43°42' E 007°59'1315.3
2016-May-05 18:33N 43°51' E 008°13'1515.1
2016-May-05 17:33N 44°02' E 008°29'1515.0
2016-May-05 16:33N 44°12' E 008°44'1413.9
2016-May-05 15:33N 44°22' E 008°57'3 3.1
2016-May-05 14:33N 44°24' E 008°54'0 0.0
2016-May-05 13:33N 44°24' E 008°54'0 0.0
2016-May-05 12:33N 44°24' E 008°54'0 0.0
2016-May-05 11:33N 44°24' E 008°54'0 0.0
2016-May-05 10:33N 44°24' E 008°54'0 0.0
2016-May-05 09:33N 44°24' E 008°54'0 0.0
2016-May-05 08:33N 44°24' E 008°54'0 0.0
2016-May-05 07:33N 44°24' E 008°54'0 0.0
2016-May-05 06:33N 44°24' E 008°54'0 0.0
2016-May-05 05:33N 44°24' E 008°54'0 0.0
2016-May-05 04:30N 44°24' E 008°54'0 0.0
2016-May-05 03:33N 44°24' E 008°54'0 0.0
2016-May-05 02:33N 44°24' E 008°54'0 0.0
2016-May-05 01:33N 44°24' E 008°54'0 0.0
2016-May-05 00:33N 44°24' E 008°54'0 0.0
2016-May-04 23:33N 44°24' E 008°54'0 0.0
2016-May-04 22:33N 44°24' E 008°54'0 0.0
2016-May-04 21:33N 44°24' E 008°54'0 0.0
2016-May-04 20:33N 44°24' E 008°54'0 0.0
2016-May-04 19:30N 44°24' E 008°54'0 0.0
2016-May-04 18:33N 44°24' E 008°54'0 0.0
2016-May-04 17:33N 44°24' E 008°54'0 0.0
2016-May-04 16:33N 44°24' E 008°54'0 0.0
2016-May-04 15:33N 44°24' E 008°54'0 0.0
2016-May-04 14:33N 44°24' E 008°54'0 0.0
2016-May-04 13:30N 44°24' E 008°54'0 0.0
2016-May-04 12:33N 44°24' E 008°54'0 0.0
2016-May-04 11:33N 44°24' E 008°54'0 0.0
2016-May-04 10:33N 44°24' E 008°54'0 0.0
2016-May-04 09:33N 44°24' E 008°54'0 0.0
2016-May-04 08:33N 44°24' E 008°54'0 0.0
2016-May-04 07:33N 44°24' E 008°54'0 0.0
2016-May-04 06:33N 44°24' E 008°54'7 7.3
2016-May-04 05:33N 44°18' E 008°59'1413.6
2016-May-04 04:34N 44°06' E 009°06'1413.9
2016-May-04 03:34N 43°53' E 009°14'1514.6
2016-May-04 02:34N 43°39' E 009°21'1514.7
2016-May-04 01:34N 43°25' E 009°28'1414.3
2016-May-04 00:33N 43°12' E 009°34'1514.5
2016-May-03 23:33N 42°58' E 009°41'1414.3
2016-May-03 22:34N 42°45' E 009°48'1514.4
2016-May-03 21:32N 42°31' E 009°54'1414.1
2016-May-03 20:33N 42°18' E 010°02'3114.0
2016-May-03 18:19N 41°57' E 010°34'411.3
2016-May-03 18:00N 41°54' E 010°36'26713.1 250 / 151013.627.0 1.017.113.0
2016-May-02 21:34N 38°56' E 014°57'1312.9
2016-May-02 20:33N 38°47' E 015°10'1313.5
2016-May-02 19:34N 38°36' E 015°20'1414.0
2016-May-02 18:34N 38°26' E 015°33'1312.7
2016-May-02 17:34N 38°16' E 015°42'1212.3
2016-May-02 16:33N 38°04' E 015°36'1212.0
2016-May-02 15:34N 37°54' E 015°44'42410.8
2016-May-01 00:10N 44°45' E 013°26'1014.2
2016-Apr-30 23:28N 44°53' E 013°18'1314.1
2016-Apr-30 22:31N 45°04' E 013°09'1513.8
2016-Apr-30 21:25N 45°18' E 013°01'1313.1
2016-Apr-30 20:24N 45°29' E 013°12'1714.0
2016-Apr-30 19:11N 45°38' E 013°33'9 8.9
2016-Apr-30 18:08N 45°47' E 013°33'31 0.6
2016-Apr-28 17:33N 45°24' E 013°02'1414.3
2016-Apr-28 16:33N 45°18' E 012°45'1312.8
2016-Apr-28 15:33N 45°17' E 012°26'1010.1
2016-Apr-28 14:33N 45°24' E 012°16'4 4.0
2016-Apr-28 13:30N 45°28' E 012°15'0 0.0
2016-Apr-28 12:33N 45°28' E 012°15'0 0.0
2016-Apr-28 11:33N 45°28' E 012°15'0 0.0
2016-Apr-28 10:33N 45°28' E 012°15'0 0.0
2016-Apr-28 09:30N 45°28' E 012°15'0 0.0
2016-Apr-28 08:30N 45°28' E 012°15'0 0.0
2016-Apr-28 07:30N 45°28' E 012°15'0 0.0
2016-Apr-28 06:30N 45°28' E 012°15'0 0.0
2016-Apr-28 05:33N 45°28' E 012°15'0 0.0
2016-Apr-28 04:33N 45°28' E 012°15'0 0.0
2016-Apr-28 03:33N 45°28' E 012°15'0 0.0
2016-Apr-28 02:33N 45°28' E 012°15'0 0.0
2016-Apr-28 01:33N 45°28' E 012°15'0 0.0
2016-Apr-28 00:30N 45°28' E 012°15'0 0.0
2016-Apr-27 23:30N 45°28' E 012°15'0 0.0
2016-Apr-27 22:33N 45°28' E 012°15'0 0.0
2016-Apr-27 21:33N 45°28' E 012°15'0 0.0
2016-Apr-27 20:30N 45°28' E 012°15'0 0.0
2016-Apr-27 19:30N 45°28' E 012°15'0 0.0
2016-Apr-27 18:30N 45°28' E 012°15'0 0.0
2016-Apr-27 17:27N 45°28' E 012°15'0 0.0
2016-Apr-27 16:27N 45°28' E 012°15'0 0.0
2016-Apr-27 15:33N 45°28' E 012°15'0 0.0
2016-Apr-27 14:33N 45°28' E 012°15'0 0.0
2016-Apr-27 13:33N 45°28' E 012°15'0 0.0
2016-Apr-27 12:33N 45°28' E 012°15'0 0.0
2016-Apr-27 11:33N 45°28' E 012°15'0 0.2
2016-Apr-27 10:34N 45°28' E 012°15'7 6.6
2016-Apr-27 09:33N 45°21' E 012°16'7 6.7
2016-Apr-27 08:34N 45°21' E 012°25'1 1.4
2016-Apr-27 07:32N 45°23' E 012°24'0 0.0
2016-Apr-27 06:32N 45°23' E 012°24'0 0.0
2016-Apr-27 05:32N 45°23' E 012°24'0 0.0
2016-Apr-27 04:32N 45°23' E 012°24'0 0.0
2016-Apr-27 03:32N 45°23' E 012°24'0 0.0
2016-Apr-27 02:32N 45°23' E 012°24'0 0.0
2016-Apr-27 01:32N 45°23' E 012°24'0 0.0
2016-Apr-27 00:23N 45°23' E 012°24'0 0.0
2016-Apr-26 23:32N 45°23' E 012°24'0 0.0
2016-Apr-26 22:32N 45°23' E 012°24'0 0.0
2016-Apr-26 21:32N 45°22' E 012°24'0 0.1
2016-Apr-26 20:32N 45°23' E 012°24'0 0.0
2016-Apr-26 19:32N 45°23' E 012°24'  
Track history (hours):
 
Tides and Currents Weather Stations Pressure Air Temp Water Temp Dewpoint Dewpoint Depression Visibility Wind Speed Wind Dir Waves Ship Positions

Tramper

Last reported at 2016-May-06 18:34 UTC. Time now 2016-May-06 18:49 UTC.
Position N 40°04' E 002°29'.

Length 101 m; beam 20 m.

Type: Cargo ship. MMSI: 245867000.

Date/timePositionNaut miles runAvg speedWind from/ knotsBaromVisibWave heightAir tempDewpointWater temp
2016-May-06 18:34N 40°04' E 002°29'1514.0
2016-May-06 17:31N 40°13' E 002°44'1313.6
2016-May-06 16:33N 40°22' E 002°57'1413.9
2016-May-06 15:33N 40°31' E 003°11'4713.3
2016-May-06 12:00N 41°00' E 004°00'8714.5 120 / 51015.8 5.4 0.519.314.0
2016-May-06 06:00N 42°00' E 005°24'8213.7 090 / 91017.327.0 0.516.813.5
2016-May-06 00:00N 42°54' E 006°48'2617.3 100 / 151019.3 5.4 1.516.511.4
2016-May-05 22:31N 43°12' E 007°13'1514.5
2016-May-05 21:30N 43°22' E 007°28'1414.7
2016-May-05 20:33N 43°31' E 007°42'1715.3
2016-May-05 19:26N 43°42' E 007°59'1315.3
2016-May-05 18:33N 43°51' E 008°13'1515.1
2016-May-05 17:33N 44°02' E 008°29'1515.0
2016-May-05 16:33N 44°12' E 008°44'1413.9
2016-May-05 15:33N 44°22' E 008°57'3 3.1
2016-May-05 14:33N 44°24' E 008°54'0 0.0
2016-May-05 13:33N 44°24' E 008°54'0 0.0
2016-May-05 12:33N 44°24' E 008°54'0 0.0
2016-May-05 11:33N 44°24' E 008°54'0 0.0
2016-May-05 10:33N 44°24' E 008°54'0 0.0
2016-May-05 09:33N 44°24' E 008°54'0 0.0
2016-May-05 08:33N 44°24' E 008°54'0 0.0
2016-May-05 07:33N 44°24' E 008°54'0 0.0
2016-May-05 06:33N 44°24' E 008°54'0 0.0
2016-May-05 05:33N 44°24' E 008°54'0 0.0
2016-May-05 04:30N 44°24' E 008°54'0 0.0
2016-May-05 03:33N 44°24' E 008°54'0 0.0
2016-May-05 02:33N 44°24' E 008°54'0 0.0
2016-May-05 01:33N 44°24' E 008°54'0 0.0
2016-May-05 00:33N 44°24' E 008°54'0 0.0
2016-May-04 23:33N 44°24' E 008°54'0 0.0
2016-May-04 22:33N 44°24' E 008°54'0 0.0
2016-May-04 21:33N 44°24' E 008°54'0 0.0
2016-May-04 20:33N 44°24' E 008°54'0 0.0
2016-May-04 19:30N 44°24' E 008°54'0 0.0
2016-May-04 18:33N 44°24' E 008°54'0 0.0
2016-May-04 17:33N 44°24' E 008°54'0 0.0
2016-May-04 16:33N 44°24' E 008°54'0 0.0
2016-May-04 15:33N 44°24' E 008°54'0 0.0
2016-May-04 14:33N 44°24' E 008°54'0 0.0
2016-May-04 13:30N 44°24' E 008°54'0 0.0
2016-May-04 12:33N 44°24' E 008°54'0 0.0
2016-May-04 11:33N 44°24' E 008°54'0 0.0
2016-May-04 10:33N 44°24' E 008°54'0 0.0
2016-May-04 09:33N 44°24' E 008°54'0 0.0
2016-May-04 08:33N 44°24' E 008°54'0 0.0
2016-May-04 07:33N 44°24' E 008°54'0 0.0
2016-May-04 06:33N 44°24' E 008°54'7 7.3
2016-May-04 05:33N 44°18' E 008°59'1413.6
2016-May-04 04:34N 44°06' E 009°06'1413.9
2016-May-04 03:34N 43°53' E 009°14'1514.6
2016-May-04 02:34N 43°39' E 009°21'1514.7
2016-May-04 01:34N 43°25' E 009°28'1414.3
2016-May-04 00:33N 43°12' E 009°34'1514.5
2016-May-03 23:33N 42°58' E 009°41'1414.3
2016-May-03 22:34N 42°45' E 009°48'1514.4
2016-May-03 21:32N 42°31' E 009°54'1414.1
2016-May-03 20:33N 42°18' E 010°02'3114.0
2016-May-03 18:19N 41°57' E 010°34'411.3
2016-May-03 18:00N 41°54' E 010°36'26713.1 250 / 151013.627.0 1.017.113.0
2016-May-02 21:34N 38°56' E 014°57'1312.9
2016-May-02 20:33N 38°47' E 015°10'1313.5
2016-May-02 19:34N 38°36' E 015°20'1414.0
2016-May-02 18:34N 38°26' E 015°33'1312.7
2016-May-02 17:34N 38°16' E 015°42'1212.3
2016-May-02 16:33N 38°04' E 015°36'1212.0
2016-May-02 15:34N 37°54' E 015°44'42410.8
2016-May-01 00:10N 44°45' E 013°26'1014.2
2016-Apr-30 23:28N 44°53' E 013°18'1314.1
2016-Apr-30 22:31N 45°04' E 013°09'1513.8
2016-Apr-30 21:25N 45°18' E 013°01'1313.1
2016-Apr-30 20:24N 45°29' E 013°12'1714.0
2016-Apr-30 19:11N 45°38' E 013°33'9 8.9
2016-Apr-30 18:08N 45°47' E 013°33'31 0.6
2016-Apr-28 17:33N 45°24' E 013°02'1414.3
2016-Apr-28 16:33N 45°18' E 012°45'1312.8
2016-Apr-28 15:33N 45°17' E 012°26'1010.1
2016-Apr-28 14:33N 45°24' E 012°16'4 4.0
2016-Apr-28 13:30N 45°28' E 012°15'0 0.0
2016-Apr-28 12:33N 45°28' E 012°15'0 0.0
2016-Apr-28 11:33N 45°28' E 012°15'0 0.0
2016-Apr-28 10:33N 45°28' E 012°15'0 0.0
2016-Apr-28 09:30N 45°28' E 012°15'0 0.0
2016-Apr-28 08:30N 45°28' E 012°15'0 0.0
2016-Apr-28 07:30N 45°28' E 012°15'0 0.0
2016-Apr-28 06:30N 45°28' E 012°15'0 0.0
2016-Apr-28 05:33N 45°28' E 012°15'0 0.0
2016-Apr-28 04:33N 45°28' E 012°15'0 0.0
2016-Apr-28 03:33N 45°28' E 012°15'0 0.0
2016-Apr-28 02:33N 45°28' E 012°15'0 0.0
2016-Apr-28 01:33N 45°28' E 012°15'0 0.0
2016-Apr-28 00:30N 45°28' E 012°15'0 0.0
2016-Apr-27 23:30N 45°28' E 012°15'0 0.0
2016-Apr-27 22:33N 45°28' E 012°15'0 0.0
2016-Apr-27 21:33N 45°28' E 012°15'0 0.0
2016-Apr-27 20:30N 45°28' E 012°15'0 0.0
2016-Apr-27 19:30N 45°28' E 012°15'0 0.0
2016-Apr-27 18:30N 45°28' E 012°15'0 0.0
2016-Apr-27 17:27N 45°28' E 012°15'0 0.0
2016-Apr-27 16:27N 45°28' E 012°15'0 0.0
2016-Apr-27 15:33N 45°28' E 012°15'0 0.0
2016-Apr-27 14:33N 45°28' E 012°15'0 0.0
2016-Apr-27 13:33N 45°28' E 012°15'0 0.0
2016-Apr-27 12:33N 45°28' E 012°15'0 0.0
2016-Apr-27 11:33N 45°28' E 012°15'0 0.2
2016-Apr-27 10:34N 45°28' E 012°15'7 6.6
2016-Apr-27 09:33N 45°21' E 012°16'7 6.7
2016-Apr-27 08:34N 45°21' E 012°25'1 1.4
2016-Apr-27 07:32N 45°23' E 012°24'0 0.0
2016-Apr-27 06:32N 45°23' E 012°24'0 0.0
2016-Apr-27 05:32N 45°23' E 012°24'0 0.0
2016-Apr-27 04:32N 45°23' E 012°24'0 0.0
2016-Apr-27 03:32N 45°23' E 012°24'0 0.0
2016-Apr-27 02:32N 45°23' E 012°24'0 0.0
2016-Apr-27 01:32N 45°23' E 012°24'0 0.0
2016-Apr-27 00:23N 45°23' E 012°24'0 0.0
2016-Apr-26 23:32N 45°23' E 012°24'0 0.0
2016-Apr-26 22:32N 45°23' E 012°24'0 0.0
2016-Apr-26 21:32N 45°22' E 012°24'0 0.1
2016-Apr-26 20:32N 45°23' E 012°24'0 0.0
2016-Apr-26 19:32N 45°23' E 012°24'  

Dump ship's entire track history